createdAt,value
2022-10-03T00:01:37.090Z,12.18
2022-10-03T00:04:22.027Z,11.15
2022-10-03T00:06:48.939Z,11.70
2022-10-03T00:09:27.243Z,11.40
2022-10-03T00:12:14.469Z,12.13
2022-10-03T00:14:57.966Z,11.02
2022-10-03T00:17:37.612Z,12.00
2022-10-03T00:20:19.453Z,11.70
2022-10-03T00:22:59.807Z,11.45
2022-10-03T00:25:40.646Z,11.88
2022-10-03T00:28:41.935Z,11.05
2022-10-03T00:31:17.069Z,10.70
2022-10-03T00:34:19.640Z,11.23
2022-10-03T00:37:06.806Z,11.35
2022-10-03T00:39:52.326Z,11.32
2022-10-03T00:42:40.233Z,11.52
2022-10-03T00:45:32.058Z,11.02
2022-10-03T00:48:26.350Z,11.20
2022-10-03T00:53:54.943Z,11.88
2022-10-03T00:56:27.625Z,10.85
2022-10-03T00:58:57.556Z,10.82
2022-10-03T01:01:30.593Z,11.23
2022-10-03T01:04:05.538Z,10.52
2022-10-03T01:06:47.456Z,9.70
2022-10-03T01:09:45.237Z,9.75
2022-10-03T01:12:33.017Z,11.05
2022-10-03T01:15:23.494Z,10.82
2022-10-03T01:18:09.475Z,10.68
2022-10-03T01:20:50.741Z,10.48
2022-10-03T01:23:44.205Z,10.82
2022-10-03T01:26:28.482Z,10.47
2022-10-03T01:29:30.772Z,10.73
2022-10-03T01:32:02.539Z,11.00
2022-10-03T01:34:49.489Z,10.77
2022-10-03T01:37:40.241Z,10.70
2022-10-03T01:40:24.127Z,11.05
2022-10-03T01:42:51.033Z,10.70
2022-10-03T01:46:02.822Z,10.73
2022-10-03T01:49:05.111Z,9.43
2022-10-03T01:51:47.423Z,10.13
2022-10-03T01:54:36.725Z,10.18
2022-10-03T01:57:18.445Z,10.60
2022-10-03T02:00:25.002Z,9.93
2022-10-03T02:03:28.743Z,8.52
2022-10-03T02:06:32.991Z,9.33
2022-10-03T02:09:28.716Z,9.80
2022-10-03T02:12:18.132Z,9.48
2022-10-03T02:15:00.079Z,9.18
2022-10-03T02:17:42.937Z,8.90
2022-10-03T02:20:23.998Z,8.52
2022-10-03T02:22:54.735Z,8.63
2022-10-03T02:25:36.623Z,8.43
2022-10-03T02:28:33.993Z,8.23
2022-10-03T02:31:32.421Z,9.25
2022-10-03T02:34:24.069Z,8.88
2022-10-03T02:37:12.645Z,8.77
2022-10-03T02:39:58.928Z,9.02
2022-10-03T02:42:55.224Z,8.27
2022-10-03T02:45:43.678Z,8.90
2022-10-03T02:48:48.011Z,9.25
2022-10-03T02:51:36.603Z,9.52
2022-10-03T02:54:40.976Z,9.18
2022-10-03T02:57:51.940Z,9.02
2022-10-03T03:00:42.215Z,8.55
2022-10-03T03:03:14.969Z,9.40
2022-10-03T03:06:18.105Z,8.68
2022-10-03T03:09:30.739Z,9.38
2022-10-03T03:12:23.496Z,9.27
2022-10-03T03:15:09.625Z,9.80
2022-10-03T03:18:11.289Z,9.57
2022-10-03T03:20:51.199Z,9.45
2022-10-03T03:23:36.261Z,10.27
2022-10-03T03:26:40.979Z,9.95
2022-10-03T03:29:40.013Z,11.20
2022-10-03T03:32:40.740Z,11.25
2022-10-03T03:35:26.438Z,11.13
2022-10-03T03:38:20.436Z,11.88
2022-10-03T03:41:13.168Z,11.38
2022-10-03T03:43:55.561Z,11.90
2022-10-03T03:46:41.317Z,12.68
2022-10-03T03:49:19.160Z,11.82
2022-10-03T03:52:12.738Z,13.00
2022-10-03T03:54:47.485Z,12.93
2022-10-03T03:57:28.127Z,13.98
2022-10-03T04:00:06.111Z,13.15
2022-10-03T04:02:48.132Z,13.10
2022-10-03T04:05:32.020Z,12.32
2022-10-03T04:08:17.656Z,12.65
2022-10-03T04:11:12.369Z,13.13
2022-10-03T04:13:48.106Z,13.32
2022-10-03T04:17:14.803Z,13.82
2022-10-03T04:19:44.787Z,13.93
2022-10-03T04:22:45.855Z,14.73
2022-10-03T04:25:31.960Z,14.55
2022-10-03T04:28:01.804Z,15.25
2022-10-03T04:30:31.756Z,13.90
2022-10-03T04:33:22.669Z,15.23
2022-10-03T04:36:07.821Z,15.52
2022-10-03T04:39:04.086Z,14.70
2022-10-03T04:41:53.999Z,13.65
2022-10-03T04:45:07.264Z,14.32
2022-10-03T04:48:12.947Z,14.65
2022-10-03T04:51:09.138Z,14.52
2022-10-03T04:53:47.657Z,15.00
2022-10-03T04:56:42.488Z,14.73
2022-10-03T04:59:38.409Z,14.90
2022-10-03T05:02:17.585Z,14.48
2022-10-03T05:05:06.347Z,15.32
2022-10-03T05:07:56.068Z,15.65
2022-10-03T05:10:41.606Z,15.85
2022-10-03T05:13:39.653Z,15.32
2022-10-03T05:16:14.973Z,15.52
2022-10-03T05:18:53.962Z,14.98
2022-10-03T05:21:39.800Z,16.45
2022-10-03T05:24:23.335Z,16.15
2022-10-03T05:26:59.250Z,17.07
2022-10-03T05:29:52.664Z,16.75
2022-10-03T05:33:08.336Z,18.00
2022-10-03T05:35:41.929Z,17.27
2022-10-03T05:38:39.567Z,17.73
2022-10-03T05:41:27.417Z,17.23
2022-10-03T05:44:19.292Z,17.90
2022-10-03T05:46:58.199Z,16.63
2022-10-03T05:50:22.509Z,16.95
2022-10-03T05:52:59.276Z,17.10
2022-10-03T05:55:57.188Z,17.75
2022-10-03T05:58:42.573Z,17.00
2022-10-03T06:01:28.302Z,17.20
2022-10-03T06:04:07.461Z,17.52
2022-10-03T06:06:53.304Z,16.80
2022-10-03T06:09:37.867Z,16.17
2022-10-03T06:12:07.496Z,16.17
2022-10-03T06:14:57.933Z,17.20
2022-10-03T06:17:53.702Z,15.35
2022-10-03T06:20:42.158Z,14.25
2022-10-03T06:23:47.867Z,15.40
2022-10-03T06:26:26.668Z,15.43
2022-10-03T06:29:02.622Z,14.77
2022-10-03T06:31:51.728Z,15.10
2022-10-03T06:34:39.997Z,17.58
2022-10-03T06:37:48.498Z,14.93
2022-10-03T06:40:31.367Z,14.43
2022-10-03T06:43:31.663Z,13.52
2022-10-03T06:46:45.631Z,14.63
2022-10-03T06:49:54.160Z,14.27
2022-10-03T06:52:54.174Z,12.98
2022-10-03T06:55:40.611Z,13.93
2022-10-03T06:58:35.620Z,12.88
2022-10-03T07:01:40.324Z,13.70
2022-10-03T07:04:13.843Z,13.60
2022-10-03T07:06:56.066Z,13.73
2022-10-03T07:10:01.413Z,13.75
2022-10-03T07:12:55.577Z,12.88
2022-10-03T07:16:08.781Z,12.60
2022-10-03T07:18:57.671Z,13.60
2022-10-03T07:21:28.569Z,13.20
2022-10-03T07:24:23.574Z,13.15
2022-10-03T07:27:28.195Z,13.40
2022-10-03T07:30:25.294Z,12.68
2022-10-03T07:33:25.470Z,12.38
2022-10-03T07:36:11.161Z,12.85
2022-10-03T07:39:07.193Z,12.10
2022-10-03T07:42:03.732Z,12.52
2022-10-03T07:44:59.620Z,12.07
2022-10-03T07:48:03.962Z,12.40
2022-10-03T07:50:58.093Z,12.23
2022-10-03T07:53:53.083Z,13.32
2022-10-03T07:56:26.088Z,12.77
2022-10-03T07:58:56.065Z,12.27
2022-10-03T08:02:01.218Z,12.57
2022-10-03T08:04:48.749Z,13.75
2022-10-03T08:07:19.540Z,13.82
2022-10-03T08:10:23.768Z,13.68
2022-10-03T08:13:19.070Z,13.55
2022-10-03T08:16:02.348Z,11.00
2022-10-03T08:21:28.276Z,13.23
2022-10-03T08:24:40.297Z,13.48
2022-10-03T08:27:39.139Z,12.75
2022-10-03T08:30:14.157Z,12.88
2022-10-03T08:33:11.547Z,15.68
2022-10-03T08:36:11.330Z,15.80
2022-10-03T08:38:47.194Z,12.88
2022-10-03T08:41:16.919Z,12.80
2022-10-03T08:43:58.924Z,13.32
2022-10-03T08:46:47.527Z,12.93
2022-10-03T08:49:39.713Z,12.93
2022-10-03T08:52:33.194Z,12.65
2022-10-03T08:58:18.740Z,12.73
2022-10-03T09:01:13.336Z,14.05
2022-10-03T09:04:15.915Z,13.02
2022-10-03T09:07:12.051Z,11.98
2022-10-03T09:09:55.011Z,12.73
2022-10-03T09:12:46.306Z,12.43
2022-10-03T09:15:53.122Z,10.80
2022-10-03T09:18:36.332Z,11.85
2022-10-03T09:21:37.162Z,11.93
2022-10-03T09:24:14.272Z,11.00
2022-10-03T09:27:08.442Z,12.00
2022-10-03T09:30:07.301Z,11.38
2022-10-03T09:32:56.161Z,11.80
2022-10-03T09:35:50.271Z,12.07
2022-10-03T09:38:23.340Z,11.90
2022-10-03T09:43:50.695Z,11.15
2022-10-03T09:47:08.282Z,10.27
2022-10-03T09:49:42.788Z,10.52
2022-10-03T09:52:47.339Z,9.93
2022-10-03T09:55:34.606Z,9.13
2022-10-03T09:58:11.150Z,9.23
2022-10-03T10:01:15.675Z,9.50
2022-10-03T10:04:43.791Z,8.40
2022-10-03T10:07:19.664Z,10.15
2022-10-03T10:12:52.059Z,9.40
2022-10-03T10:15:38.340Z,9.70
2022-10-03T10:18:23.754Z,9.35
2022-10-03T10:21:01.128Z,9.10
2022-10-03T10:23:52.651Z,8.80
2022-10-03T10:26:39.207Z,9.05
2022-10-03T10:29:24.960Z,8.77
2022-10-03T10:32:40.065Z,8.77
2022-10-03T10:35:22.082Z,9.77
2022-10-03T10:38:11.254Z,9.82
2022-10-03T10:41:09.759Z,9.05
2022-10-03T10:44:30.866Z,8.90
2022-10-03T10:47:18.061Z,8.85
2022-10-03T10:50:03.813Z,9.75
2022-10-03T10:53:01.282Z,9.20
2022-10-03T10:55:33.736Z,10.75
2022-10-03T10:58:28.945Z,10.13
2022-10-03T11:01:14.598Z,9.98
2022-10-03T11:04:00.323Z,8.85
2022-10-03T11:07:08.306Z,9.38
2022-10-03T11:09:43.781Z,9.00
2022-10-03T11:12:22.689Z,10.35
2022-10-03T11:15:24.753Z,11.15
2022-10-03T11:18:10.275Z,10.30
2022-10-03T11:21:18.359Z,9.00
2022-10-03T11:24:19.393Z,9.05
2022-10-03T11:27:39.525Z,10.90
2022-10-03T11:30:20.923Z,9.95
2022-10-03T11:33:25.553Z,10.07
2022-10-03T11:36:11.224Z,9.45
2022-10-03T11:39:03.925Z,11.43
2022-10-03T11:41:41.319Z,9.45
2022-10-03T11:44:29.592Z,8.85
2022-10-03T11:47:02.072Z,9.73
2022-10-03T11:49:53.364Z,11.02
2022-10-03T11:52:44.270Z,10.32
2022-10-03T11:55:35.692Z,9.52
2022-10-03T11:58:22.745Z,9.93
2022-10-03T12:01:04.899Z,8.75
2022-10-03T12:03:43.322Z,9.38
2022-10-03T12:06:35.863Z,9.68
2022-10-03T12:09:09.003Z,10.20
2022-10-03T12:12:11.154Z,10.88
2022-10-03T12:14:51.106Z,10.95
2022-10-03T12:17:35.155Z,11.23
2022-10-03T12:20:29.756Z,10.63
2022-10-03T12:23:32.881Z,11.98
2022-10-03T12:26:03.175Z,11.50
2022-10-03T12:28:54.679Z,12.68
2022-10-03T12:31:24.838Z,11.32
2022-10-03T12:33:59.324Z,11.80
2022-10-03T12:36:58.907Z,12.02
2022-10-03T12:39:45.830Z,11.80
2022-10-03T12:42:47.011Z,12.98
2022-10-03T12:45:22.949Z,10.75
2022-10-03T12:48:03.695Z,11.60
2022-10-03T12:50:49.407Z,10.40
2022-10-03T12:53:17.475Z,11.18
2022-10-03T12:56:15.755Z,10.63
2022-10-03T12:59:02.905Z,12.80
2022-10-03T13:01:47.038Z,10.52
2022-10-03T13:04:54.476Z,12.40
2022-10-03T13:07:43.588Z,12.68
2022-10-03T13:10:29.480Z,12.52
2022-10-03T13:13:21.013Z,13.10
2022-10-03T13:16:07.446Z,11.25
2022-10-03T13:18:53.091Z,11.45
2022-10-03T13:21:45.534Z,11.27
2022-10-03T13:27:23.304Z,10.55
2022-10-03T13:30:05.395Z,10.70
2022-10-03T13:32:32.395Z,12.35
2022-10-03T13:35:48.600Z,10.48
2022-10-03T13:38:38.863Z,11.43
2022-10-03T13:41:08.728Z,11.93
2022-10-03T13:43:40.296Z,11.38
2022-10-03T13:46:16.733Z,12.80
2022-10-03T13:49:01.000Z,12.02
2022-10-03T13:51:39.833Z,12.98
2022-10-03T13:54:22.254Z,12.32
2022-10-03T13:57:05.894Z,14.88
2022-10-03T13:59:48.128Z,11.75
2022-10-03T14:02:42.637Z,12.15
2022-10-03T14:05:22.600Z,11.60
2022-10-03T14:08:09.149Z,11.35
2022-10-03T14:10:36.328Z,11.60
2022-10-03T14:13:21.722Z,11.38
2022-10-03T14:15:58.361Z,10.68
2022-10-03T14:18:46.908Z,12.00
2022-10-03T14:21:40.000Z,10.93
2022-10-03T14:24:24.654Z,13.05
2022-10-03T14:26:59.494Z,11.85
2022-10-03T14:29:34.895Z,13.38
2022-10-03T14:32:42.289Z,13.32
2022-10-03T14:35:14.768Z,12.27
2022-10-03T14:37:56.190Z,12.48
2022-10-03T14:40:38.513Z,11.30
2022-10-03T14:43:28.998Z,11.68
2022-10-03T14:45:59.215Z,12.27
2022-10-03T14:48:36.494Z,12.45
2022-10-03T14:51:43.079Z,12.82
2022-10-03T14:54:28.040Z,13.85
2022-10-03T14:56:57.104Z,12.02
2022-10-03T14:59:33.537Z,13.88
2022-10-03T15:02:05.257Z,12.32
2022-10-03T15:04:39.542Z,14.38
2022-10-03T15:07:07.803Z,14.00
2022-10-03T15:09:41.026Z,15.40
2022-10-03T15:15:20.328Z,13.98
2022-10-03T15:17:53.537Z,16.42
2022-10-03T15:20:30.144Z,16.02
2022-10-03T15:23:01.174Z,15.02
2022-10-03T15:25:36.710Z,15.07
2022-10-03T15:28:15.477Z,15.43
2022-10-03T15:30:44.263Z,15.60
2022-10-03T15:33:17.812Z,14.90
2022-10-03T15:35:49.218Z,15.57
2022-10-03T15:38:33.401Z,15.27
2022-10-03T15:41:07.174Z,15.77
2022-10-03T15:43:56.967Z,15.55
2022-10-03T15:46:50.007Z,17.52
2022-10-03T15:49:27.428Z,18.15
2022-10-03T15:51:57.113Z,16.13
2022-10-03T15:54:29.008Z,17.10
2022-10-03T15:57:01.491Z,17.83
2022-10-03T15:59:37.578Z,17.85
2022-10-03T16:02:19.095Z,14.70
2022-10-03T16:04:47.887Z,15.18
2022-10-03T16:07:36.893Z,16.30
2022-10-03T16:10:04.291Z,16.25
2022-10-03T16:12:43.226Z,16.67
2022-10-03T16:15:20.727Z,13.48
2022-10-03T16:17:56.521Z,12.57
2022-10-03T16:20:47.450Z,12.75
2022-10-03T16:23:21.293Z,12.25
2022-10-03T16:25:57.563Z,14.20
2022-10-03T16:28:40.282Z,14.43
2022-10-03T16:31:17.508Z,16.08
2022-10-03T16:33:57.235Z,15.35
2022-10-03T16:36:25.735Z,15.52
2022-10-03T16:38:59.774Z,17.50
2022-10-03T16:41:29.739Z,16.48
2022-10-03T16:44:00.359Z,17.15
2022-10-03T16:46:34.938Z,17.83
2022-10-03T16:49:28.264Z,23.15
2022-10-03T16:54:33.690Z,22.15
2022-10-03T16:57:05.055Z,21.05
2022-10-03T16:59:34.243Z,20.60
2022-10-03T17:02:07.171Z,21.40
2022-10-03T17:04:39.428Z,20.08
2022-10-03T17:07:23.783Z,28.98
2022-10-03T17:10:00.960Z,20.55
2022-10-03T17:12:37.126Z,23.90
2022-10-03T17:15:21.082Z,25.30
2022-10-03T17:20:30.251Z,21.13
2022-10-03T17:23:04.095Z,22.40
2022-10-03T17:25:37.224Z,20.50
2022-10-03T17:28:08.556Z,20.75
2022-10-03T17:30:44.418Z,19.83
2022-10-03T17:33:41.709Z,21.40
2022-10-03T17:36:23.068Z,21.30
2022-10-03T17:39:01.995Z,20.63
2022-10-03T17:41:56.235Z,20.42
2022-10-03T17:47:17.646Z,19.50
2022-10-03T17:50:02.300Z,19.15
2022-10-03T17:52:30.921Z,20.35
2022-10-03T17:55:02.201Z,19.48
2022-10-03T17:57:42.181Z,19.02
2022-10-03T18:00:50.423Z,19.77
2022-10-03T18:03:40.906Z,20.00
2022-10-03T18:06:32.606Z,20.38
2022-10-03T18:09:07.421Z,21.08
2022-10-03T18:11:37.452Z,21.13
2022-10-03T18:14:19.577Z,21.05
2022-10-03T18:16:54.802Z,20.80
2022-10-03T18:19:50.592Z,22.50
2022-10-03T18:22:36.045Z,22.08
2022-10-03T18:26:19.869Z,20.30
2022-10-03T18:29:01.181Z,20.70
2022-10-03T18:31:34.213Z,21.77
2022-10-03T18:34:20.444Z,22.40
2022-10-03T18:36:50.459Z,21.73
2022-10-03T18:39:37.427Z,22.00
2022-10-03T18:42:11.897Z,22.48
2022-10-03T18:44:44.827Z,21.85
2022-10-03T18:47:26.128Z,23.23
2022-10-03T18:50:22.037Z,21.33
2022-10-03T18:53:21.692Z,20.88
2022-10-03T18:55:55.511Z,21.70
2022-10-03T18:58:32.488Z,23.15
2022-10-03T19:01:08.382Z,23.20
2022-10-03T19:03:37.748Z,23.23
2022-10-03T19:06:19.140Z,21.23
2022-10-03T19:09:06.673Z,22.52
2022-10-03T19:11:47.283Z,22.65
2022-10-03T19:14:26.239Z,22.70
2022-10-03T19:17:38.640Z,22.70
2022-10-03T19:20:25.035Z,21.73
2022-10-03T19:23:01.342Z,22.35
2022-10-03T19:25:29.870Z,22.77
2022-10-03T19:28:02.363Z,22.08
2022-10-03T19:30:32.258Z,22.40
2022-10-03T19:33:07.185Z,21.77
2022-10-03T19:35:39.375Z,20.52
2022-10-03T19:38:18.809Z,21.83
2022-10-03T19:40:53.460Z,20.83
2022-10-03T19:43:32.332Z,21.70
2022-10-03T19:46:35.483Z,21.02
2022-10-03T19:49:13.233Z,18.75
2022-10-03T19:51:40.719Z,21.90
2022-10-03T19:54:53.407Z,21.20
2022-10-03T19:57:47.875Z,21.40
2022-10-03T20:00:18.402Z,19.75
2022-10-03T20:02:51.810Z,22.60
2022-10-03T20:05:46.738Z,20.25
2022-10-03T20:08:25.445Z,20.15
2022-10-03T20:11:10.063Z,19.00
2022-10-03T20:13:43.943Z,19.80
2022-10-03T20:16:17.069Z,18.55
2022-10-03T20:18:48.945Z,19.55
2022-10-03T20:21:23.690Z,18.67
2022-10-03T20:23:54.409Z,18.50
2022-10-03T20:26:27.156Z,17.95
2022-10-03T20:29:02.925Z,17.75
2022-10-03T20:31:31.081Z,18.40
2022-10-03T20:34:03.390Z,16.42
2022-10-03T20:36:33.814Z,16.10
2022-10-03T20:39:15.451Z,15.50
2022-10-03T20:41:43.211Z,16.00
2022-10-03T20:44:34.793Z,16.13
2022-10-03T20:47:15.173Z,16.17
2022-10-03T20:49:51.764Z,14.80
2022-10-03T20:52:21.410Z,14.98
2022-10-03T20:54:52.157Z,12.98
2022-10-03T20:57:26.762Z,12.18
2022-10-03T21:00:16.962Z,12.50
2022-10-03T21:02:49.142Z,12.98
2022-10-03T21:05:34.440Z,12.35
2022-10-03T21:08:15.638Z,12.27
2022-10-03T21:10:59.374Z,12.73
2022-10-03T21:13:36.822Z,13.43
2022-10-03T21:16:15.398Z,12.50
2022-10-03T21:18:47.125Z,12.20
2022-10-03T21:21:48.635Z,11.35
2022-10-03T21:24:19.242Z,11.68
2022-10-03T21:26:47.861Z,11.70
2022-10-03T21:29:36.172Z,11.20
2022-10-03T21:32:45.592Z,11.40
2022-10-03T21:35:23.947Z,10.73
2022-10-03T21:38:15.057Z,10.32
2022-10-03T21:41:12.359Z,9.23
2022-10-03T21:43:59.027Z,10.57
2022-10-03T21:46:38.992Z,9.82
2022-10-03T21:49:14.997Z,9.27
2022-10-03T21:51:48.204Z,10.00
2022-10-03T21:54:30.035Z,11.55
2022-10-03T21:57:38.681Z,10.93
2022-10-03T22:00:19.326Z,10.13
2022-10-03T22:03:07.044Z,11.25
2022-10-03T22:05:39.390Z,10.38
2022-10-03T22:08:26.267Z,10.43
2022-10-03T22:11:14.058Z,9.63
2022-10-03T22:13:46.753Z,9.52
2022-10-03T22:17:05.891Z,10.82
2022-10-03T22:19:44.764Z,11.38
2022-10-03T22:23:02.870Z,10.85
2022-10-03T22:25:57.783Z,11.15
2022-10-03T22:28:30.340Z,11.35
2022-10-03T22:31:20.625Z,11.00
2022-10-03T22:34:20.567Z,11.68
2022-10-03T22:36:47.900Z,10.75
2022-10-03T22:39:17.660Z,10.43
2022-10-03T22:41:51.777Z,11.68
2022-10-03T22:44:22.438Z,12.02
2022-10-03T22:46:52.392Z,11.02
2022-10-03T22:49:19.296Z,10.93
2022-10-03T22:51:50.249Z,10.68
2022-10-03T22:54:18.993Z,11.40
2022-10-03T22:56:53.353Z,11.57
2022-10-03T22:59:25.053Z,11.77
2022-10-03T23:01:54.348Z,11.98
2022-10-03T23:04:29.300Z,12.02
2022-10-03T23:07:14.939Z,11.25
2022-10-03T23:10:29.411Z,11.82
2022-10-03T23:13:17.931Z,10.85
2022-10-03T23:15:50.146Z,11.57
2022-10-03T23:18:33.315Z,11.35
2022-10-03T23:21:06.671Z,11.53
2022-10-03T23:23:49.425Z,11.32
2022-10-03T23:26:45.559Z,11.68
2022-10-03T23:29:15.321Z,12.38
2022-10-03T23:31:54.119Z,11.77
2022-10-03T23:34:36.156Z,11.77
2022-10-03T23:37:15.023Z,12.18
2022-10-03T23:40:07.614Z,11.75
2022-10-03T23:42:45.643Z,12.73
2022-10-03T23:45:19.136Z,12.13
2022-10-03T23:47:54.416Z,12.45
2022-10-03T23:50:47.029Z,13.27
2022-10-03T23:53:31.557Z,12.13
2022-10-03T23:56:01.797Z,12.57
2022-10-03T23:58:37.720Z,12.57
